sensor_id;sensor_type;location;lat;lon;timestamp;pressure;altitude;pressure_sealevel;temperature;humidity
53041;BME280;39326;42.650;23.248;2023-04-04T00:01:18;91116.13;;;5.31;97.61
53041;BME280;39326;42.650;23.248;2023-04-04T00:03:43;91114.94;;;5.35;96.93
53041;BME280;39326;42.650;23.248;2023-04-04T00:06:08;91109.28;;;5.37;96.74
53041;BME280;39326;42.650;23.248;2023-04-04T00:08:34;91113.03;;;5.39;96.14
53041;BME280;39326;42.650;23.248;2023-04-04T00:10:59;91107.34;;;5.44;95.76
53041;BME280;39326;42.650;23.248;2023-04-04T00:13:25;91105.81;;;5.50;95.59
53041;BME280;39326;42.650;23.248;2023-04-04T00:15:52;91089.91;;;5.54;95.36
53041;BME280;39326;42.650;23.248;2023-04-04T00:18:17;91105.41;;;5.52;95.92
53041;BME280;39326;42.650;23.248;2023-04-04T00:20:42;91110.31;;;5.54;95.77
53041;BME280;39326;42.650;23.248;2023-04-04T00:23:08;91105.06;;;5.50;95.64
53041;BME280;39326;42.650;23.248;2023-04-04T00:25:35;91097.94;;;5.40;95.92
53041;BME280;39326;42.650;23.248;2023-04-04T00:28:01;91105.78;;;5.54;96.11
53041;BME280;39326;42.650;23.248;2023-04-04T00:30:28;91105.78;;;5.58;95.73
53041;BME280;39326;42.650;23.248;2023-04-04T00:32:53;91103.22;;;5.43;96.51
53041;BME280;39326;42.650;23.248;2023-04-04T00:35:20;91096.81;;;5.37;96.86
53041;BME280;39326;42.650;23.248;2023-04-04T00:37:45;91091.09;;;5.42;96.78
53041;BME280;39326;42.650;23.248;2023-04-04T00:40:11;91096.41;;;5.42;96.70
53041;BME280;39326;42.650;23.248;2023-04-04T00:42:37;91092.31;;;5.31;97.68
53041;BME280;39326;42.650;23.248;2023-04-04T00:45:04;91082.84;;;5.37;97.62
53041;BME280;39326;42.650;23.248;2023-04-04T00:47:31;91092.59;;;5.50;97.31
53041;BME280;39326;42.650;23.248;2023-04-04T00:49:57;91083.59;;;5.37;97.82
53041;BME280;39326;42.650;23.248;2023-04-04T00:52:23;91093.44;;;5.33;97.98
53041;BME280;39326;42.650;23.248;2023-04-04T00:54:48;91093.44;;;5.37;98.08
53041;BME280;39326;42.650;23.248;2023-04-04T00:57:14;91091.16;;;5.35;97.63
53041;BME280;39326;42.650;23.248;2023-04-04T00:59:41;91113.69;;;5.58;96.65
53041;BME280;39326;42.650;23.248;2023-04-04T01:02:07;91120.78;;;5.71;96.20
53041;BME280;39326;42.650;23.248;2023-04-04T01:04:33;91122.59;;;5.89;95.45
53041;BME280;39326;42.650;23.248;2023-04-04T01:06:59;91121.00;;;5.98;94.64
53041;BME280;39326;42.650;23.248;2023-04-04T01:09:26;91144.03;;;6.01;93.87
53041;BME280;39326;42.650;23.248;2023-04-04T01:11:52;91147.72;;;6.18;92.46
53041;BME280;39326;42.650;23.248;2023-04-04T01:14:20;91144.00;;;6.09;93.18
53041;BME280;39326;42.650;23.248;2023-04-04T01:16:48;91129.97;;;6.15;93.47
53041;BME280;39326;42.650;23.248;2023-04-04T01:19:21;91123.56;;;6.09;93.39
53041;BME280;39326;42.650;23.248;2023-04-04T01:21:49;91117.06;;;6.21;92.45
53041;BME280;39326;42.650;23.248;2023-04-04T01:24:17;91129.97;;;6.15;92.77
53041;BME280;39326;42.650;23.248;2023-04-04T01:26:43;91130.31;;;6.21;91.89
53041;BME280;39326;42.650;23.248;2023-04-04T01:29:11;91126.84;;;6.27;91.45
53041;BME280;39326;42.650;23.248;2023-04-04T01:31:39;91122.22;;;6.35;90.98
53041;BME280;39326;42.650;23.248;2023-04-04T01:37:18;91127.94;;;6.34;91.04
53041;BME280;39326;42.650;23.248;2023-04-04T01:39:52;91118.91;;;6.27;90.63
53041;BME280;39326;42.650;23.248;2023-04-04T01:42:22;91112.84;;;6.27;90.36
53041;BME280;39326;42.650;23.248;2023-04-04T01:44:53;91107.09;;;6.36;89.19
53041;BME280;39326;42.650;23.248;2023-04-04T01:47:19;91095.41;;;6.33;89.56
53041;BME280;39326;42.650;23.248;2023-04-04T01:49:44;91088.75;;;6.14;90.82
53041;BME280;39326;42.650;23.248;2023-04-04T01:52:10;91092.44;;;6.24;90.00
53041;BME280;39326;42.650;23.248;2023-04-04T01:54:35;91089.09;;;6.16;90.47
53041;BME280;39326;42.650;23.248;2023-04-04T01:57:01;91078.53;;;6.16;90.86
53041;BME280;39326;42.650;23.248;2023-04-04T01:59:26;91076.00;;;6.02;92.01
53041;BME280;39326;42.650;23.248;2023-04-04T02:01:52;91081.69;;;6.00;91.99
53041;BME280;39326;42.650;23.248;2023-04-04T02:04:17;91083.88;;;6.09;91.40
53041;BME280;39326;42.650;23.248;2023-04-04T02:06:43;91080.84;;;6.11;90.65
53041;BME280;39326;42.650;23.248;2023-04-04T02:09:08;91078.56;;;6.13;90.44
53041;BME280;39326;42.650;23.248;2023-04-04T02:11:33;91071.00;;;6.11;90.68
53041;BME280;39326;42.650;23.248;2023-04-04T02:13:59;91080.16;;;6.03;91.27
53041;BME280;39326;42.650;23.248;2023-04-04T02:16:24;91080.09;;;6.10;91.37
53041;BME280;39326;42.650;23.248;2023-04-04T02:18:50;91080.41;;;6.16;90.76
53041;BME280;39326;42.650;23.248;2023-04-04T02:21:15;91073.97;;;6.20;90.25
53041;BME280;39326;42.650;23.248;2023-04-04T02:23:40;91080.00;;;6.21;89.96
53041;BME280;39326;42.650;23.248;2023-04-04T02:26:06;91075.03;;;6.26;89.85
53041;BME280;39326;42.650;23.248;2023-04-04T02:28:31;91075.06;;;6.23;89.86
53041;BME280;39326;42.650;23.248;2023-04-04T02:31:00;91068.25;;;6.25;89.70
53041;BME280;39326;42.650;23.248;2023-04-04T02:33:29;91072.41;;;6.23;89.69
53041;BME280;39326;42.650;23.248;2023-04-04T02:35:59;91069.84;;;6.16;89.89
53041;BME280;39326;42.650;23.248;2023-04-04T02:38:25;91079.66;;;6.15;90.23
53041;BME280;39326;42.650;23.248;2023-04-04T02:40:51;91078.50;;;6.20;90.00
53041;BME280;39326;42.650;23.248;2023-04-04T02:43:16;91068.72;;;6.13;90.13
53041;BME280;39326;42.650;23.248;2023-04-04T02:45:42;91078.56;;;6.13;90.21
53041;BME280;39326;42.650;23.248;2023-04-04T02:48:07;91077.78;;;6.16;90.35
53041;BME280;39326;42.650;23.248;2023-04-04T02:50:33;91081.84;;;6.24;89.72
53041;BME280;39326;42.650;23.248;2023-04-04T02:52:59;91085.09;;;6.01;90.62
53041;BME280;39326;42.650;23.248;2023-04-04T02:55:25;91085.78;;;6.09;90.22
53041;BME280;39326;42.650;23.248;2023-04-04T02:57:50;91089.53;;;6.11;89.61
53041;BME280;39326;42.650;23.248;2023-04-04T03:00:16;91094.88;;;6.08;89.78
53041;BME280;39326;42.650;23.248;2023-04-04T03:02:42;91096.06;;;5.96;90.50
53041;BME280;39326;42.650;23.248;2023-04-04T03:05:08;91099.25;;;5.73;92.01
53041;BME280;39326;42.650;23.248;2023-04-04T03:07:33;91100.53;;;5.50;93.48
53041;BME280;39326;42.650;23.248;2023-04-04T03:09:58;91095.47;;;5.74;92.19
53041;BME280;39326;42.650;23.248;2023-04-04T03:12:24;91110.91;;;5.79;92.45
53041;BME280;39326;42.650;23.248;2023-04-04T03:14:49;91105.69;;;5.72;92.62
53041;BME280;39326;42.650;23.248;2023-04-04T03:17:15;91104.72;;;5.44;93.98
53041;BME280;39326;42.650;23.248;2023-04-04T03:19:42;91106.28;;;5.31;94.27
53041;BME280;39326;42.650;23.248;2023-04-04T03:22:07;91099.47;;;5.30;94.72
53041;BME280;39326;42.650;23.248;2023-04-04T03:24:34;91095.25;;;5.47;94.21
53041;BME280;39326;42.650;23.248;2023-04-04T03:26:59;91100.94;;;5.45;94.29
53041;BME280;39326;42.650;23.248;2023-04-04T03:29:27;91100.53;;;5.50;94.00
53041;BME280;39326;42.650;23.248;2023-04-04T03:31:53;91094.53;;;5.36;94.39
53041;BME280;39326;42.650;23.248;2023-04-04T03:34:18;91100.22;;;5.34;94.53
53041;BME280;39326;42.650;23.248;2023-04-04T03:36:44;91099.81;;;5.39;94.33
53041;BME280;39326;42.650;23.248;2023-04-04T03:39:13;91110.41;;;5.43;94.45
53041;BME280;39326;42.650;23.248;2023-04-04T03:41:38;91108.16;;;5.38;94.42
53041;BME280;39326;42.650;23.248;2023-04-04T03:44:05;91102.38;;;5.57;93.39
53041;BME280;39326;42.650;23.248;2023-04-04T03:46:30;91107.56;;;5.71;92.56
53041;BME280;39326;42.650;23.248;2023-04-04T03:48:55;91102.25;;;5.78;92.01
53041;BME280;39326;42.650;23.248;2023-04-04T03:51:24;91100.34;;;5.83;91.72
53041;BME280;39326;42.650;23.248;2023-04-04T03:53:50;91109.03;;;5.80;91.70
53041;BME280;39326;42.650;23.248;2023-04-04T03:56:16;91108.66;;;5.77;92.04
53041;BME280;39326;42.650;23.248;2023-04-04T03:58:41;91106.78;;;5.78;92.26
53041;BME280;39326;42.650;23.248;2023-04-04T04:01:07;91102.63;;;5.81;91.81
53041;BME280;39326;42.650;23.248;2023-04-04T04:03:32;91109.47;;;5.74;92.51
53041;BME280;39326;42.650;23.248;2023-04-04T04:05:58;91103.03;;;5.75;92.33
53041;BME280;39326;42.650;23.248;2023-04-04T04:08:24;91104.06;;;5.89;91.39
53041;BME280;39326;42.650;23.248;2023-04-04T04:10:49;91105.22;;;5.88;91.92
53041;BME280;39326;42.650;23.248;2023-04-04T04:13:15;91105.63;;;5.83;92.05
53041;BME280;39326;42.650;23.248;2023-04-04T04:15:40;91108.22;;;5.90;92.11
53041;BME280;39326;42.650;23.248;2023-04-04T04:18:06;91108.94;;;5.94;91.53
53041;BME280;39326;42.650;23.248;2023-04-04T04:20:31;91116.13;;;5.93;91.57
53041;BME280;39326;42.650;23.248;2023-04-04T04:22:57;91110.41;;;5.98;91.32
53041;BME280;39326;42.650;23.248;2023-04-04T04:25:22;91113.41;;;6.04;90.78
53041;BME280;39326;42.650;23.248;2023-04-04T04:27:48;91120.94;;;6.09;90.54
53041;BME280;39326;42.650;23.248;2023-04-04T04:30:13;91119.81;;;6.07;90.32
53041;BME280;39326;42.650;23.248;2023-04-04T04:32:39;91120.19;;;6.09;90.37
53041;BME280;39326;42.650;23.248;2023-04-04T04:35:05;91123.97;;;6.04;90.70
53041;BME280;39326;42.650;23.248;2023-04-04T04:37:31;91129.31;;;6.00;90.98
53041;BME280;39326;42.650;23.248;2023-04-04T04:39:56;91133.88;;;5.96;92.06
53041;BME280;39326;42.650;23.248;2023-04-04T04:42:22;91136.84;;;6.02;90.81
53041;BME280;39326;42.650;23.248;2023-04-04T04:44:47;91136.41;;;6.14;90.14
53041;BME280;39326;42.650;23.248;2023-04-04T04:47:13;91143.59;;;6.14;89.87
53041;BME280;39326;42.650;23.248;2023-04-04T04:49:38;91147.72;;;6.15;90.13
53041;BME280;39326;42.650;23.248;2023-04-04T04:52:03;91152.97;;;6.22;89.32
53041;BME280;39326;42.650;23.248;2023-04-04T04:54:29;91160.22;;;6.14;89.62
53041;BME280;39326;42.650;23.248;2023-04-04T04:56:54;91159.06;;;6.15;90.18
53041;BME280;39326;42.650;23.248;2023-04-04T04:59:20;91154.13;;;6.21;90.29
53041;BME280;39326;42.650;23.248;2023-04-04T05:01:45;91156.00;;;6.20;90.59
53041;BME280;39326;42.650;23.248;2023-04-04T05:04:11;91145.84;;;6.15;90.92
53041;BME280;39326;42.650;23.248;2023-04-04T05:06:37;91154.50;;;6.19;91.21
53041;BME280;39326;42.650;23.248;2023-04-04T05:09:03;91168.50;;;6.16;91.32
53041;BME280;39326;42.650;23.248;2023-04-04T05:11:28;91159.94;;;6.01;92.13
53041;BME280;39326;42.650;23.248;2023-04-04T05:13:55;91166.28;;;6.11;91.71
53041;BME280;39326;42.650;23.248;2023-04-04T05:16:20;91169.66;;;6.12;91.37
53041;BME280;39326;42.650;23.248;2023-04-04T05:18:46;91177.25;;;6.10;91.72
53041;BME280;39326;42.650;23.248;2023-04-04T05:21:11;91175.59;;;6.30;90.97
53041;BME280;39326;42.650;23.248;2023-04-04T05:23:37;91171.34;;;6.43;90.70
53041;BME280;39326;42.650;23.248;2023-04-04T05:26:03;91177.66;;;6.60;89.90
53041;BME280;39326;42.650;23.248;2023-04-04T05:28:28;91174.63;;;6.62;90.41
53041;BME280;39326;42.650;23.248;2023-04-04T05:30:54;91176.56;;;6.57;91.80
53041;BME280;39326;42.650;23.248;2023-04-04T05:33:19;91179.25;;;6.47;91.76
53041;BME280;39326;42.650;23.248;2023-04-04T05:35:44;91179.63;;;6.49;91.22
53041;BME280;39326;42.650;23.248;2023-04-04T05:38:10;91176.97;;;6.56;90.96
53041;BME280;39326;42.650;23.248;2023-04-04T05:40:36;91181.97;;;6.40;91.34
53041;BME280;39326;42.650;23.248;2023-04-04T05:43:01;91178.56;;;6.39;90.98
53041;BME280;39326;42.650;23.248;2023-04-04T05:45:29;91187.16;;;6.54;91.19
53041;BME280;39326;42.650;23.248;2023-04-04T05:47:55;91192.06;;;6.55;91.66
53041;BME280;39326;42.650;23.248;2023-04-04T05:50:21;91193.91;;;6.62;91.25
53041;BME280;39326;42.650;23.248;2023-04-04T05:52:46;91195.78;;;6.65;91.24
53041;BME280;39326;42.650;23.248;2023-04-04T05:55:12;91189.63;;;6.79;91.31
53041;BME280;39326;42.650;23.248;2023-04-04T05:57:46;91196.72;;;6.89;90.84
53041;BME280;39326;42.650;23.248;2023-04-04T06:00:12;91189.22;;;6.80;90.59
53041;BME280;39326;42.650;23.248;2023-04-04T06:02:37;91189.75;;;6.65;91.83
53041;BME280;39326;42.650;23.248;2023-04-04T06:05:03;91203.34;;;6.67;91.69
53041;BME280;39326;42.650;23.248;2023-04-04T06:07:28;91195.59;;;6.90;91.97
53041;BME280;39326;42.650;23.248;2023-04-04T06:09:54;91199.81;;;7.22;91.42
53041;BME280;39326;42.650;23.248;2023-04-04T06:12:19;91196.19;;;7.43;90.59
53041;BME280;39326;42.650;23.248;2023-04-04T06:14:45;91202.88;;;7.20;90.85
53041;BME280;39326;42.650;23.248;2023-04-04T06:17:10;91207.88;;;7.11;90.72
53041;BME280;39326;42.650;23.248;2023-04-04T06:19:36;91210.84;;;7.20;90.76
53041;BME280;39326;42.650;23.248;2023-04-04T06:22:01;91205.34;;;7.38;91.18
53041;BME280;39326;42.650;23.248;2023-04-04T06:24:27;91215.22;;;7.34;90.87
53041;BME280;39326;42.650;23.248;2023-04-04T06:26:52;91213.47;;;7.58;89.87
53041;BME280;39326;42.650;23.248;2023-04-04T06:29:18;91210.19;;;7.43;89.30
53041;BME280;39326;42.650;23.248;2023-04-04T06:31:43;91211.66;;;7.48;89.79
53041;BME280;39326;42.650;23.248;2023-04-04T06:34:09;91223.22;;;7.30;89.11
53041;BME280;39326;42.650;23.248;2023-04-04T06:36:35;91226.75;;;7.17;89.00
53041;BME280;39326;42.650;23.248;2023-04-04T06:39:00;91229.22;;;6.97;90.04
53041;BME280;39326;42.650;23.248;2023-04-04T06:41:26;91232.47;;;7.15;89.39
53041;BME280;39326;42.650;23.248;2023-04-04T06:43:51;91245.84;;;7.01;89.51
53041;BME280;39326;42.650;23.248;2023-04-04T06:46:17;91243.69;;;6.89;88.64
53041;BME280;39326;42.650;23.248;2023-04-04T06:48:42;91252.78;;;6.84;87.86
53041;BME280;39326;42.650;23.248;2023-04-04T06:51:09;91264.84;;;6.33;87.25
53041;BME280;39326;42.650;23.248;2023-04-04T06:53:36;91268.28;;;6.26;87.38
53041;BME280;39326;42.650;23.248;2023-04-04T06:56:01;91265.72;;;6.12;87.66
53041;BME280;39326;42.650;23.248;2023-04-04T06:58:27;91272.56;;;6.02;88.02
53041;BME280;39326;42.650;23.248;2023-04-04T07:00:53;91279.13;;;5.69;87.13
53041;BME280;39326;42.650;23.248;2023-04-04T07:03:20;91286.34;;;5.58;86.93
53041;BME280;39326;42.650;23.248;2023-04-04T07:05:47;91294.72;;;5.14;87.95
53041;BME280;39326;42.650;23.248;2023-04-04T07:08:13;91303.00;;;5.34;87.26
53041;BME280;39326;42.650;23.248;2023-04-04T07:10:38;91312.44;;;5.20;87.41
53041;BME280;39326;42.650;23.248;2023-04-04T07:13:04;91324.16;;;5.09;88.13
53041;BME280;39326;42.650;23.248;2023-04-04T07:15:29;91325.66;;;5.10;88.08
53041;BME280;39326;42.650;23.248;2023-04-04T07:17:55;91331.31;;;4.83;87.56
53041;BME280;39326;42.650;23.248;2023-04-04T07:20:20;91337.38;;;4.84;87.61
53041;BME280;39326;42.650;23.248;2023-04-04T07:22:47;91341.53;;;5.03;87.19
53041;BME280;39326;42.650;23.248;2023-04-04T07:25:12;91352.03;;;4.67;87.62
53041;BME280;39326;42.650;23.248;2023-04-04T07:27:38;91354.34;;;4.83;87.73
53041;BME280;39326;42.650;23.248;2023-04-04T07:30:05;91369.81;;;4.81;87.43
53041;BME280;39326;42.650;23.248;2023-04-04T07:32:31;91365.66;;;4.76;87.26
53041;BME280;39326;42.650;23.248;2023-04-04T07:34:57;91366.00;;;4.64;85.42
53041;BME280;39326;42.650;23.248;2023-04-04T07:37:23;91370.78;;;4.19;86.57
53041;BME280;39326;42.650;23.248;2023-04-04T07:39:50;91374.56;;;4.22;86.66
53041;BME280;39326;42.650;23.248;2023-04-04T07:42:16;91386.59;;;4.23;87.17
53041;BME280;39326;42.650;23.248;2023-04-04T07:44:49;91378.28;;;4.13;86.95
53041;BME280;39326;42.650;23.248;2023-04-04T07:47:15;91386.59;;;4.23;86.73
53041;BME280;39326;42.650;23.248;2023-04-04T07:49:41;91393.03;;;4.25;86.59
53041;BME280;39326;42.650;23.248;2023-04-04T07:52:06;91398.75;;;4.38;86.99
53041;BME280;39326;42.650;23.248;2023-04-04T07:54:33;91395.94;;;4.06;85.13
53041;BME280;39326;42.650;23.248;2023-04-04T07:56:59;91395.94;;;4.09;84.93
53041;BME280;39326;42.650;23.248;2023-04-04T07:59:24;91406.84;;;4.01;84.81
53041;BME280;39326;42.650;23.248;2023-04-04T08:01:50;91404.09;;;3.79;85.73
53041;BME280;39326;42.650;23.248;2023-04-04T08:04:16;91408.59;;;3.79;85.88
53041;BME280;39326;42.650;23.248;2023-04-04T08:06:41;91414.72;;;3.94;85.41
53041;BME280;39326;42.650;23.248;2023-04-04T08:09:07;91400.41;;;3.95;85.44
53041;BME280;39326;42.650;23.248;2023-04-04T08:11:32;91415.44;;;3.87;84.70
53041;BME280;39326;42.650;23.248;2023-04-04T08:13:58;91424.88;;;3.88;84.93
53041;BME280;39326;42.650;23.248;2023-04-04T08:16:23;91432.13;;;4.09;84.60
53041;BME280;39326;42.650;23.248;2023-04-04T08:18:48;91427.34;;;4.25;85.17
53041;BME280;39326;42.650;23.248;2023-04-04T08:21:14;91432.84;;;4.02;83.25
53041;BME280;39326;42.650;23.248;2023-04-04T08:23:39;91438.72;;;3.74;83.27
53041;BME280;39326;42.650;23.248;2023-04-04T08:26:05;91442.00;;;3.57;84.36
53041;BME280;39326;42.650;23.248;2023-04-04T08:28:30;91453.63;;;3.49;84.96
53041;BME280;39326;42.650;23.248;2023-04-04T08:30:56;91446.69;;;3.85;83.89
53041;BME280;39326;42.650;23.248;2023-04-04T08:33:21;91452.38;;;3.91;83.70
53041;BME280;39326;42.650;23.248;2023-04-04T08:35:50;91459.72;;;4.19;83.71
53041;BME280;39326;42.650;23.248;2023-04-04T08:38:15;91473.56;;;4.05;82.76
53041;BME280;39326;42.650;23.248;2023-04-04T08:40:44;91463.03;;;4.05;81.20
53041;BME280;39326;42.650;23.248;2023-04-04T08:43:11;91458.44;;;3.95;80.01
53041;BME280;39326;42.650;23.248;2023-04-04T08:45:40;91464.47;;;3.95;80.48
53041;BME280;39326;42.650;23.248;2023-04-04T08:48:07;91463.63;;;3.84;81.15
53041;BME280;39326;42.650;23.248;2023-04-04T08:50:37;91457.97;;;3.85;80.23
53041;BME280;39326;42.650;23.248;2023-04-04T08:53:03;91469.03;;;4.02;80.34
53041;BME280;39326;42.650;23.248;2023-04-04T08:55:30;91472.78;;;4.04;80.46
53041;BME280;39326;42.650;23.248;2023-04-04T08:57:56;91480.63;;;3.86;80.12
53041;BME280;39326;42.650;23.248;2023-04-04T09:00:22;91485.34;;;3.63;79.36
53041;BME280;39326;42.650;23.248;2023-04-04T09:02:54;91478.16;;;3.60;80.18
53041;BME280;39326;42.650;23.248;2023-04-04T09:05:22;91486.22;;;3.33;82.09
53041;BME280;39326;42.650;23.248;2023-04-04T09:07:49;91491.38;;;2.82;81.89
53041;BME280;39326;42.650;23.248;2023-04-04T09:10:15;91487.38;;;2.95;82.63
53041;BME280;39326;42.650;23.248;2023-04-04T09:12:44;91492.25;;;2.97;83.57
53041;BME280;39326;42.650;23.248;2023-04-04T09:15:11;91486.41;;;3.11;83.01
53041;BME280;39326;42.650;23.248;2023-04-04T09:17:38;91492.56;;;3.25;82.51
53041;BME280;39326;42.650;23.248;2023-04-04T09:20:37;91483.47;;;3.19;84.48
53041;BME280;39326;42.650;23.248;2023-04-04T09:23:13;91492.56;;;3.29;82.64
53041;BME280;39326;42.650;23.248;2023-04-04T09:25:47;91491.56;;;3.03;81.42
53041;BME280;39326;42.650;23.248;2023-04-04T09:28:14;91487.19;;;3.15;82.28
53041;BME280;39326;42.650;23.248;2023-04-04T09:30:40;91488.25;;;3.51;81.69
53041;BME280;39326;42.650;23.248;2023-04-04T09:33:08;91488.44;;;3.79;81.52
53041;BME280;39326;42.650;23.248;2023-04-04T09:35:38;91494.44;;;3.73;78.93
53041;BME280;39326;42.650;23.248;2023-04-04T09:38:06;91502.25;;;3.58;79.14
53041;BME280;39326;42.650;23.248;2023-04-04T09:40:32;91504.38;;;3.42;80.48
53041;BME280;39326;42.650;23.248;2023-04-04T09:43:02;91511.13;;;3.40;80.76
53041;BME280;39326;42.650;23.248;2023-04-04T09:45:33;91509.94;;;3.33;81.38
53041;BME280;39326;42.650;23.248;2023-04-04T09:48:00;91513.75;;;3.36;81.07
53041;BME280;39326;42.650;23.248;2023-04-04T09:50:26;91513.31;;;3.34;79.97
53041;BME280;39326;42.650;23.248;2023-04-04T09:52:56;91513.47;;;3.48;80.39
53041;BME280;39326;42.650;23.248;2023-04-04T09:55:36;91513.59;;;3.66;81.15
53041;BME280;39326;42.650;23.248;2023-04-04T09:58:13;91525.47;;;3.42;79.21
53041;BME280;39326;42.650;23.248;2023-04-04T10:00:40;91516.81;;;3.04;78.08
53041;BME280;39326;42.650;23.248;2023-04-04T10:03:07;91512.06;;;3.17;80.01
53041;BME280;39326;42.650;23.248;2023-04-04T10:05:33;91512.13;;;3.24;80.68
53041;BME280;39326;42.650;23.248;2023-04-04T10:07:59;91505.84;;;3.36;80.48
53041;BME280;39326;42.650;23.248;2023-04-04T10:10:26;91512.31;;;3.46;80.02
53041;BME280;39326;42.650;23.248;2023-04-04T10:12:56;91516.59;;;3.20;77.82
53041;BME280;39326;42.650;23.248;2023-04-04T10:15:22;91511.84;;;3.37;78.19
53041;BME280;39326;42.650;23.248;2023-04-04T10:17:52;91515.19;;;3.30;78.88
53041;BME280;39326;42.650;23.248;2023-04-04T10:20:19;91520.50;;;3.37;78.57
53041;BME280;39326;42.650;23.248;2023-04-04T10:22:46;91521.50;;;3.66;78.29
53041;BME280;39326;42.650;23.248;2023-04-04T10:25:12;91519.38;;;3.82;78.93
53041;BME280;39326;42.650;23.248;2023-04-04T10:27:38;91528.28;;;3.64;77.13
53041;BME280;39326;42.650;23.248;2023-04-04T10:30:04;91535.59;;;3.40;77.26
53041;BME280;39326;42.650;23.248;2023-04-04T10:32:47;91532.94;;;3.37;75.63
53041;BME280;39326;42.650;23.248;2023-04-04T10:35:16;91538.97;;;3.41;76.98
53041;BME280;39326;42.650;23.248;2023-04-04T10:37:44;91549.63;;;3.14;76.14
53041;BME280;39326;42.650;23.248;2023-04-04T10:40:15;91548.59;;;2.85;77.22
53041;BME280;39326;42.650;23.248;2023-04-04T10:42:45;91547.63;;;2.70;75.99
53041;BME280;39326;42.650;23.248;2023-04-04T10:45:13;91545.38;;;2.69;77.20
53041;BME280;39326;42.650;23.248;2023-04-04T10:47:40;91559.13;;;2.89;78.00
53041;BME280;39326;42.650;23.248;2023-04-04T10:50:06;91550.63;;;2.69;77.44
53041;BME280;39326;42.650;23.248;2023-04-04T10:52:35;91560.09;;;2.73;76.88
53041;BME280;39326;42.650;23.248;2023-04-04T10:55:06;91557.19;;;2.82;77.41
53041;BME280;39326;42.650;23.248;2023-04-04T10:57:36;91567.53;;;2.68;77.44
53041;BME280;39326;42.650;23.248;2023-04-04T11:00:10;91568.69;;;2.40;78.36
53041;BME280;39326;42.650;23.248;2023-04-04T11:07:48;91569.09;;;2.72;77.20
53041;BME280;39326;42.650;23.248;2023-04-04T11:10:22;91559.34;;;2.73;77.60
53041;BME280;39326;42.650;23.248;2023-04-04T11:12:52;91572.16;;;2.78;77.68
53041;BME280;39326;42.650;23.248;2023-04-04T11:15:23;91574.91;;;2.85;78.20
53041;BME280;39326;42.650;23.248;2023-04-04T11:17:59;91577.78;;;2.76;78.15
53041;BME280;39326;42.650;23.248;2023-04-04T11:20:34;91581.09;;;2.70;77.42
53041;BME280;39326;42.650;23.248;2023-04-04T11:23:07;91578.03;;;2.64;78.76
53041;BME280;39326;42.650;23.248;2023-04-04T11:25:37;91594.84;;;2.86;79.35
53041;BME280;39326;42.650;23.248;2023-04-04T11:28:10;91595.06;;;3.04;78.26
53041;BME280;39326;42.650;23.248;2023-04-04T11:30:38;91592.50;;;3.11;77.39
53041;BME280;39326;42.650;23.248;2023-04-04T11:33:10;91600.13;;;3.20;76.89
53041;BME280;39326;42.650;23.248;2023-04-04T11:35:44;91594.47;;;3.18;77.10
53041;BME280;39326;42.650;23.248;2023-04-04T11:38:14;91600.72;;;3.06;76.78
53041;BME280;39326;42.650;23.248;2023-04-04T11:40:41;91599.06;;;3.24;76.39
53041;BME280;39326;42.650;23.248;2023-04-04T11:43:17;91602.13;;;3.30;76.51
53041;BME280;39326;42.650;23.248;2023-04-04T11:45:45;91594.47;;;3.18;76.06
53041;BME280;39326;42.650;23.248;2023-04-04T11:48:12;91595.59;;;2.87;75.76
53041;BME280;39326;42.650;23.248;2023-04-04T11:50:40;91592.97;;;2.87;75.50
53041;BME280;39326;42.650;23.248;2023-04-04T11:53:07;91604.50;;;2.48;75.88
53041;BME280;39326;42.650;23.248;2023-04-04T11:55:38;91592.00;;;2.68;75.71
53041;BME280;39326;42.650;23.248;2023-04-04T11:58:09;91602.75;;;2.60;77.21
53041;BME280;39326;42.650;23.248;2023-04-04T12:00:35;91606.88;;;2.57;77.32
53041;BME280;39326;42.650;23.248;2023-04-04T12:03:06;91587.00;;;2.33;77.26
53041;BME280;39326;42.650;23.248;2023-04-04T12:05:34;91601.56;;;2.53;77.70
53041;BME280;39326;42.650;23.248;2023-04-04T12:08:00;91592.22;;;2.56;76.12
53041;BME280;39326;42.650;23.248;2023-04-04T12:10:28;91591.72;;;2.77;76.13
53041;BME280;39326;42.650;23.248;2023-04-04T12:12:57;91592.00;;;2.68;76.81
53041;BME280;39326;42.650;23.248;2023-04-04T12:15:22;91606.50;;;2.85;76.71
53041;BME280;39326;42.650;23.248;2023-04-04T12:17:48;91607.94;;;2.52;76.46
53041;BME280;39326;42.650;23.248;2023-04-04T12:20:15;91604.69;;;2.63;77.16
53041;BME280;39326;42.650;23.248;2023-04-04T12:22:41;91606.34;;;2.74;76.51
53041;BME280;39326;42.650;23.248;2023-04-04T12:25:07;91613.00;;;2.65;75.88
53041;BME280;39326;42.650;23.248;2023-04-04T12:27:34;91592.81;;;2.19;77.43
53041;BME280;39326;42.650;23.248;2023-04-04T12:30:01;91600.31;;;2.17;77.90
53041;BME280;39326;42.650;23.248;2023-04-04T12:32:28;91607.47;;;2.20;78.33
53041;BME280;39326;42.650;23.248;2023-04-04T12:34:59;91610.38;;;2.12;77.97
53041;BME280;39326;42.650;23.248;2023-04-04T12:37:27;91598.72;;;1.86;78.72
53041;BME280;39326;42.650;23.248;2023-04-04T12:39:54;91610.19;;;2.01;79.10
53041;BME280;39326;42.650;23.248;2023-04-04T12:42:22;91605.22;;;1.96;78.89
53041;BME280;39326;42.650;23.248;2023-04-04T12:44:52;91605.38;;;2.30;77.82
53041;BME280;39326;42.650;23.248;2023-04-04T12:47:18;91611.13;;;2.12;79.68
53041;BME280;39326;42.650;23.248;2023-04-04T12:49:46;91614.44;;;2.09;80.30
53041;BME280;39326;42.650;23.248;2023-04-04T12:52:17;91615.38;;;2.20;78.67
53041;BME280;39326;42.650;23.248;2023-04-04T12:54:45;91618.56;;;2.07;80.45
53041;BME280;39326;42.650;23.248;2023-04-04T12:57:25;91617.78;;;1.83;79.63
53041;BME280;39326;42.650;23.248;2023-04-04T12:59:53;91621.81;;;1.77;80.63
53041;BME280;39326;42.650;23.248;2023-04-04T13:02:21;91625.56;;;1.76;80.51
53041;BME280;39326;42.650;23.248;2023-04-04T13:04:51;91628.97;;;1.99;80.47
53041;BME280;39326;42.650;23.248;2023-04-04T13:07:21;91627.91;;;2.04;80.04